Time;durP1;ratioP1;P1;durP2;ratioP2;P2;SDS_P1;SDS_P2;PMS_P1;PMS_P2;Temp;Humidity;BMP_temperature;BMP_pressure;BME280_temperature;BME280_humidity;BME280_pressure;Samples;Min_cycle;Max_cycle;Signal;HPM_P1;HPM_P2
2023/07/10 00:01:26;;;;;;;7.87;5.00;;;18.70;99.90;;;;;;5093939;28;20237;-76
2023/07/10 00:03:55;;;;;;;8.77;5.23;;;18.80;99.90;;;;;;5093546;28;20250;-76
2023/07/10 00:06:25;;;;;;;8.13;5.13;;;18.80;99.90;;;;;;5107477;28;20283;-75
2023/07/10 00:08:53;;;;;;;8.23;5.23;;;18.80;99.90;;;;;;5114467;28;20214;-75
2023/07/10 00:11:31;;;;;;;7.73;5.13;;;18.70;99.90;;;;;;5114574;28;20618;-77
2023/07/10 00:13:59;;;;;;;7.23;5.63;;;18.70;99.90;;;;;;5112047;28;20187;-75
2023/07/10 00:16:29;;;;;;;7.43;5.10;;;18.70;99.90;;;;;;5092994;28;20202;-75
2023/07/10 00:18:57;;;;;;;11.50;5.70;;;18.70;99.90;;;;;;5102484;28;20206;-76
2023/07/10 00:21:26;;;;;;;7.60;5.17;;;18.70;99.90;;;;;;5103592;28;20211;-76
2023/07/10 00:23:54;;;;;;;7.67;5.17;;;18.60;99.90;;;;;;5100199;28;20241;-77
2023/07/10 00:26:24;;;;;;;8.27;5.30;;;18.60;99.90;;;;;;5098914;28;20221;-76
2023/07/10 00:28:54;;;;;;;6.27;4.93;;;18.50;99.90;;;;;;5098498;28;20215;-76
2023/07/10 00:31:24;;;;;;;7.23;4.80;;;18.50;99.90;;;;;;5095532;28;20222;-76
2023/07/10 00:33:54;;;;;;;6.53;4.90;;;18.40;99.90;;;;;;5095361;28;20206;-77
2023/07/10 00:36:30;;;;;;;6.27;4.80;;;18.40;99.90;;;;;;5099053;28;20217;-77
2023/07/10 00:39:01;;;;;;;7.73;5.63;;;18.30;99.90;;;;;;5097464;28;20210;-75
2023/07/10 00:41:34;;;;;;;8.73;5.00;;;18.30;99.90;;;;;;5107732;28;20284;-76
2023/07/10 00:44:03;;;;;;;6.37;4.93;;;18.30;99.90;;;;;;5114264;28;20217;-74
2023/07/10 00:46:37;;;;;;;7.20;5.37;;;18.30;99.90;;;;;;5115166;28;20253;-77
2023/07/10 00:49:11;;;;;;;9.77;5.60;;;18.30;99.90;;;;;;5112417;28;20289;-75
2023/07/10 00:51:49;;;;;;;6.90;4.83;;;18.30;99.90;;;;;;5093502;28;20191;-75
2023/07/10 00:54:25;;;;;;;8.33;5.27;;;18.30;99.90;;;;;;5093060;28;20626;-75
2023/07/10 00:56:55;;;;;;;7.43;5.10;;;18.20;99.90;;;;;;5092533;28;20252;-76
2023/07/10 00:59:25;;;;;;;7.70;5.57;;;18.20;99.90;;;;;;5112325;28;20221;-75
2023/07/10 01:02:22;;;;;;;10.10;5.57;;;18.20;99.90;;;;;;5111040;28;20229;-75
2023/07/10 01:04:58;;;;;;;8.70;5.63;;;18.20;99.90;;;;;;5111720;28;20214;-75
2023/07/10 01:07:32;;;;;;;8.20;5.40;;;18.20;99.90;;;;;;5092743;28;20206;-76
2023/07/10 01:10:04;;;;;;;7.40;5.37;;;18.20;99.90;;;;;;5091709;28;20285;-74
2023/07/10 01:12:32;;;;;;;9.00;5.73;;;18.10;99.90;;;;;;5091456;28;20294;-75
2023/07/10 01:15:01;;;;;;;8.20;5.33;;;18.10;99.90;;;;;;5091840;28;20214;-76
2023/07/10 01:17:29;;;;;;;7.87;5.40;;;18.10;99.90;;;;;;5092824;28;20300;-76
2023/07/10 01:20:02;;;;;;;7.60;5.50;;;18.10;99.90;;;;;;5092997;28;20207;-74
2023/07/10 01:22:32;;;;;;;7.97;5.20;;;18.10;99.90;;;;;;5074427;28;20229;-74
2023/07/10 01:25:00;;;;;;;8.17;5.63;;;18.00;99.90;;;;;;5092364;28;20699;-74
2023/07/10 01:27:29;;;;;;;8.20;5.70;;;18.00;99.90;;;;;;5092498;28;20230;-75
2023/07/10 01:30:03;;;;;;;8.00;5.27;;;18.00;99.90;;;;;;5091956;28;20202;-75
2023/07/10 01:32:31;;;;;;;8.07;5.80;;;18.00;99.90;;;;;;5091698;28;20305;-76
2023/07/10 01:35:02;;;;;;;6.27;5.10;;;17.90;99.90;;;;;;5092602;28;20219;-76
2023/07/10 01:37:32;;;;;;;9.90;5.30;;;17.90;99.90;;;;;;5092544;28;20215;-75
2023/07/10 01:40:00;;;;;;;11.23;5.60;;;17.90;99.90;;;;;;5092523;28;20252;-76
2023/07/10 01:42:28;;;;;;;8.30;5.53;;;17.90;99.90;;;;;;5091822;28;20230;-76
2023/07/10 01:44:56;;;;;;;9.30;5.87;;;17.90;99.90;;;;;;5092250;28;20237;-77
2023/07/10 01:47:25;;;;;;;8.00;5.30;;;17.80;99.90;;;;;;5092205;28;20252;-75
2023/07/10 01:49:58;;;;;;;10.87;5.63;;;17.80;99.90;;;;;;5091873;28;20249;-75
2023/07/10 01:52:27;;;;;;;8.43;5.37;;;17.90;99.90;;;;;;5092401;28;20206;-77
2023/07/10 01:54:56;;;;;;;10.00;5.47;;;17.90;99.90;;;;;;5092229;28;20280;-76
2023/07/10 01:57:26;;;;;;;8.30;5.43;;;17.90;99.90;;;;;;5093483;28;20211;-76
2023/07/10 01:59:54;;;;;;;8.63;5.43;;;17.90;99.90;;;;;;5092661;28;20211;-77
2023/07/10 02:02:22;;;;;;;9.13;5.63;;;17.90;99.90;;;;;;5092739;28;20668;-74
2023/07/10 02:04:51;;;;;;;7.13;5.20;;;18.00;99.90;;;;;;5092281;28;20199;-75
2023/07/10 02:07:19;;;;;;;6.23;4.73;;;18.00;99.90;;;;;;5091806;28;20207;-75
2023/07/10 02:09:47;;;;;;;8.20;5.53;;;18.00;99.90;;;;;;5091391;28;20211;-76
2023/07/10 02:12:16;;;;;;;8.00;5.57;;;18.00;99.90;;;;;;5091600;28;20203;-76
2023/07/10 02:14:46;;;;;;;5.77;4.77;;;18.00;99.90;;;;;;5091870;28;20229;-75
2023/07/10 02:17:14;;;;;;;11.77;5.43;;;18.00;99.90;;;;;;5091623;28;20217;-75
2023/07/10 02:19:42;;;;;;;6.93;4.90;;;18.00;99.90;;;;;;5102731;28;20237;-76
2023/07/10 02:22:10;;;;;;;7.73;5.40;;;18.00;99.90;;;;;;5112073;28;20214;-75
2023/07/10 02:24:41;;;;;;;8.13;5.30;;;18.00;99.90;;;;;;5113586;28;20304;-76
2023/07/10 02:27:10;;;;;;;9.07;5.30;;;18.00;99.90;;;;;;5113212;28;20207;-75
2023/07/10 02:29:39;;;;;;;8.57;5.40;;;18.00;99.90;;;;;;5100928;28;20203;-76
2023/07/10 02:32:08;;;;;;;9.93;5.40;;;17.90;99.90;;;;;;5091495;28;20744;-76
2023/07/10 02:34:36;;;;;;;8.93;5.07;;;17.90;99.90;;;;;;5091633;28;20252;-75
2023/07/10 02:37:05;;;;;;;6.67;4.60;;;17.90;99.90;;;;;;5091931;28;20203;-76
2023/07/10 02:39:33;;;;;;;7.83;4.80;;;17.80;99.90;;;;;;5092926;28;20230;-76
2023/07/10 02:42:01;;;;;;;8.33;4.90;;;17.80;99.90;;;;;;5095898;28;20231;-75
2023/07/10 02:44:30;;;;;;;8.13;4.60;;;17.70;99.90;;;;;;5105561;28;20218;-75
2023/07/10 02:46:59;;;;;;;7.73;4.80;;;17.70;99.90;;;;;;5104372;28;20276;-76
2023/07/10 02:49:27;;;;;;;6.70;5.07;;;17.60;99.90;;;;;;5097202;28;20263;-77
2023/07/10 02:51:55;;;;;;;10.03;4.80;;;17.60;99.90;;;;;;5102357;28;20198;-76
2023/07/10 02:54:23;;;;;;;7.27;5.07;;;17.60;99.90;;;;;;5116880;28;20259;-76
2023/07/10 02:56:51;;;;;;;7.30;5.10;;;17.60;99.90;;;;;;5097755;28;20696;-75
2023/07/10 02:59:19;;;;;;;6.90;5.17;;;17.50;99.90;;;;;;5097197;28;20254;-77
2023/07/10 03:01:47;;;;;;;9.63;5.17;;;17.50;99.90;;;;;;5097150;28;20494;-77
2023/07/10 03:04:17;;;;;;;6.90;4.87;;;17.40;99.90;;;;;;5096171;28;20215;-76
2023/07/10 03:06:48;;;;;;;7.23;4.90;;;17.40;99.90;;;;;;5095096;28;20260;-76
2023/07/10 03:09:17;;;;;;;6.73;5.20;;;17.40;99.90;;;;;;5095011;28;20274;-77
2023/07/10 03:11:45;;;;;;;7.47;5.00;;;17.40;99.90;;;;;;5094381;28;20245;-78
2023/07/10 03:14:13;;;;;;;7.40;4.83;;;17.40;99.90;;;;;;5105996;28;20218;-76
2023/07/10 03:16:41;;;;;;;9.63;5.43;;;17.40;99.90;;;;;;5115375;28;20206;-75
2023/07/10 03:19:09;;;;;;;10.10;5.30;;;17.40;99.90;;;;;;5115550;28;20233;-75
2023/07/10 03:21:38;;;;;;;7.87;5.33;;;17.40;99.90;;;;;;5109002;28;20261;-75
2023/07/10 03:24:07;;;;;;;8.63;5.47;;;17.40;99.90;;;;;;5094447;28;20665;-76
2023/07/10 03:26:35;;;;;;;7.27;4.80;;;17.30;99.90;;;;;;5094399;28;20207;-76
2023/07/10 03:29:07;;;;;;;9.50;5.83;;;17.30;99.90;;;;;;5094903;28;20256;-75
2023/07/10 03:31:35;;;;;;;7.33;5.20;;;17.30;99.90;;;;;;5094433;28;20280;-76
2023/07/10 03:34:04;;;;;;;7.37;5.27;;;17.30;99.90;;;;;;5094112;28;20207;-75
2023/07/10 03:36:32;;;;;;;7.93;5.20;;;17.30;99.90;;;;;;5094184;28;20672;-76
2023/07/10 03:39:01;;;;;;;8.53;4.97;;;17.20;99.90;;;;;;5094411;28;20262;-74
2023/07/10 03:41:29;;;;;;;8.33;5.20;;;17.20;99.90;;;;;;5105872;28;20260;-76
2023/07/10 03:43:58;;;;;;;9.47;4.77;;;17.20;99.90;;;;;;5113933;28;20667;-75
2023/07/10 03:46:26;;;;;;;8.33;5.07;;;17.20;99.90;;;;;;5114046;28;20210;-75
2023/07/10 03:48:54;;;;;;;7.80;5.60;;;17.20;99.90;;;;;;5113064;28;20238;-76
2023/07/10 03:51:22;;;;;;;7.33;5.17;;;17.20;99.90;;;;;;5093873;28;20434;-75
2023/07/10 03:53:51;;;;;;;6.50;5.13;;;17.10;99.90;;;;;;5093519;28;20211;-77
2023/07/10 03:56:20;;;;;;;6.57;5.07;;;17.20;99.90;;;;;;5093852;28;20231;-76
2023/07/10 03:58:49;;;;;;;5.73;4.70;;;17.20;99.90;;;;;;5092114;28;20299;-75
2023/07/10 04:01:17;;;;;;;8.97;5.10;;;17.20;99.90;;;;;;5093484;28;20211;-75
2023/07/10 04:03:45;;;;;;;12.90;5.77;;;17.20;99.90;;;;;;5091778;28;20202;-74
2023/07/10 04:06:16;;;;;;;7.23;5.00;;;17.30;99.90;;;;;;5093383;28;20260;-76
2023/07/10 04:08:46;;;;;;;11.07;5.27;;;17.40;99.90;;;;;;5093468;28;20291;-75
2023/07/10 04:11:15;;;;;;;8.73;5.17;;;17.40;99.90;;;;;;5093262;28;20243;-74
2023/07/10 04:13:45;;;;;;;7.77;4.97;;;17.50;99.90;;;;;;5093079;28;20676;-75
2023/07/10 04:16:18;;;;;;;6.67;5.03;;;17.60;99.90;;;;;;5093086;28;20215;-75
2023/07/10 04:18:48;;;;;;;8.33;5.40;;;17.70;99.90;;;;;;5092709;28;20294;-75
2023/07/10 04:21:17;;;;;;;11.50;6.03;;;17.70;99.90;;;;;;5092942;28;20317;-74
2023/07/10 04:23:46;;;;;;;8.60;5.40;;;17.90;99.90;;;;;;5092100;28;20271;-75
2023/07/10 04:26:17;;;;;;;6.57;5.00;;;18.00;99.90;;;;;;5093186;28;20211;-75
2023/07/10 04:28:48;;;;;;;7.90;5.53;;;18.00;99.90;;;;;;5093384;28;20207;-75
2023/07/10 04:31:17;;;;;;;6.70;4.83;;;18.20;99.90;;;;;;5092899;28;20229;-74
2023/07/10 04:33:46;;;;;;;6.20;5.00;;;18.20;99.90;;;;;;5092645;28;20630;-75
2023/07/10 04:36:14;;;;;;;7.90;4.53;;;18.30;99.90;;;;;;5093253;28;20256;-75
2023/07/10 04:38:42;;;;;;;8.90;5.53;;;18.50;99.90;;;;;;5092833;28;20218;-74
2023/07/10 04:41:13;;;;;;;8.87;4.90;;;18.60;99.90;;;;;;5092182;28;20613;-75
2023/07/10 04:43:41;;;;;;;6.67;4.90;;;18.70;99.90;;;;;;5092331;28;20276;-77
2023/07/10 04:46:12;;;;;;;7.50;5.07;;;18.80;99.90;;;;;;5094546;28;20260;-76
2023/07/10 04:48:42;;;;;;;7.17;4.90;;;18.90;99.90;;;;;;5103258;28;20194;-77
2023/07/10 04:51:13;;;;;;;9.07;4.87;;;19.00;99.90;;;;;;5103934;28;20202;-76
2023/07/10 04:53:41;;;;;;;8.90;5.20;;;19.10;99.90;;;;;;5091949;28;20260;-76
2023/07/10 04:56:12;;;;;;;6.17;4.80;;;19.20;99.90;;;;;;5099940;28;20210;-80
2023/07/10 04:58:50;;;;;;;7.20;4.70;;;19.20;99.90;;;;;;5101509;28;20230;-78
2023/07/10 05:01:21;;;;;;;7.80;4.63;;;19.30;99.90;;;;;;5100597;28;20202;-75
2023/07/10 05:03:49;;;;;;;8.10;4.50;;;19.40;99.90;;;;;;5109951;28;20648;-76
2023/07/10 05:06:18;;;;;;;9.13;4.93;;;19.50;99.90;;;;;;5110450;28;20206;-75
2023/07/10 05:08:47;;;;;;;7.50;4.97;;;19.60;99.90;;;;;;5103228;28;20205;-77
2023/07/10 05:11:16;;;;;;;7.87;4.93;;;19.70;99.90;;;;;;5103326;28;20210;-75
2023/07/10 05:13:44;;;;;;;7.60;4.73;;;19.80;99.90;;;;;;5107716;28;20234;-75
2023/07/10 05:16:14;;;;;;;8.93;5.00;;;20.00;99.90;;;;;;5092384;28;20211;-75
2023/07/10 05:18:43;;;;;;;6.33;4.53;;;20.10;99.90;;;;;;5105879;28;20275;-75
2023/07/10 05:21:11;;;;;;;6.30;4.50;;;20.30;99.90;;;;;;5112659;28;20232;-75
2023/07/10 05:23:40;;;;;;;10.13;4.70;;;20.40;99.90;;;;;;5112118;28;20274;-76
2023/07/10 05:26:10;;;;;;;6.60;4.40;;;20.40;99.90;;;;;;5111360;28;20206;-77
2023/07/10 05:28:39;;;;;;;8.13;4.40;;;20.50;99.90;;;;;;5092154;28;20214;-76
2023/07/10 05:31:09;;;;;;;6.17;4.30;;;20.50;99.90;;;;;;5091806;28;20793;-76
2023/07/10 05:33:38;;;;;;;7.00;4.77;;;20.60;99.90;;;;;;5094650;28;20226;-75
2023/07/10 05:36:10;;;;;;;9.10;4.70;;;20.60;99.90;;;;;;5112297;28;20675;-74
2023/07/10 05:38:39;;;;;;;6.67;4.70;;;20.70;99.90;;;;;;5104802;28;20492;-75
2023/07/10 05:41:08;;;;;;;9.07;5.00;;;20.80;99.90;;;;;;5096085;28;20688;-75
2023/07/10 05:43:36;;;;;;;6.60;4.57;;;20.90;99.90;;;;;;5099115;28;20742;-75
2023/07/10 05:46:05;;;;;;;6.10;4.30;;;21.10;99.90;;;;;;5100451;28;20207;-74
2023/07/10 05:48:34;;;;;;;6.27;4.63;;;21.20;99.90;;;;;;5098643;28;20564;-76
2023/07/10 05:51:03;;;;;;;7.60;4.40;;;21.40;99.90;;;;;;5100115;28;20213;-75
2023/07/10 05:53:34;;;;;;;8.20;4.80;;;21.70;99.90;;;;;;5101625;28;20204;-76
2023/07/10 05:56:03;;;;;;;7.37;4.33;;;22.10;99.90;;;;;;5099475;28;20636;-76
2023/07/10 05:58:34;;;;;;;7.90;4.40;;;22.40;99.90;;;;;;5101618;28;20200;-76
2023/07/10 06:01:02;;;;;;;7.30;4.40;;;22.70;99.90;;;;;;5100620;28;20218;-75
2023/07/10 06:03:33;;;;;;;6.60;4.73;;;22.80;99.90;;;;;;5101328;28;20679;-77
2023/07/10 06:06:04;;;;;;;8.27;4.60;;;22.90;99.90;;;;;;5102770;28;20203;-75
2023/07/10 06:08:35;;;;;;;7.30;4.37;;;22.90;99.80;;;;;;5093411;28;20207;-74
2023/07/10 06:11:03;;;;;;;7.40;4.23;;;22.80;99.90;;;;;;5091401;28;20203;-75
2023/07/10 06:13:32;;;;;;;8.13;4.40;;;22.60;99.90;;;;;;5091856;28;20203;-75
2023/07/10 06:16:01;;;;;;;7.17;4.90;;;22.70;99.90;;;;;;5095413;28;20207;-75
2023/07/10 06:18:29;;;;;;;6.73;4.50;;;23.00;99.90;;;;;;5095679;28;20591;-76
2023/07/10 06:20:59;;;;;;;7.37;4.40;;;23.30;99.90;;;;;;5095343;28;20234;-75
2023/07/10 06:23:29;;;;;;;8.03;4.20;;;23.90;98.70;;;;;;5095190;28;20611;-75
2023/07/10 06:25:59;;;;;;;6.50;4.33;;;24.40;98.60;;;;;;5095275;28;20243;-77
2023/07/10 06:28:29;;;;;;;6.73;4.37;;;25.00;97.90;;;;;;5096023;28;20206;-77
2023/07/10 06:30:59;;;;;;;11.23;4.80;;;25.60;95.90;;;;;;5095026;28;20215;-76
2023/07/10 06:33:28;;;;;;;6.13;4.07;;;26.10;94.60;;;;;;5094873;28;20254;-78
2023/07/10 06:35:56;;;;;;;8.17;4.53;;;26.40;93.50;;;;;;5094907;28;20211;-77
2023/07/10 06:38:24;;;;;;;7.63;4.50;;;26.80;94.70;;;;;;5094898;28;20577;-77
2023/07/10 06:40:52;;;;;;;7.27;4.10;;;27.30;93.90;;;;;;5094653;28;20223;-79
2023/07/10 06:43:23;;;;;;;5.20;3.83;;;27.70;91.90;;;;;;5094447;28;20661;-78
2023/07/10 06:45:51;;;;;;;6.72;4.22;;;28.40;90.00;;;;;;5094250;28;20229;-77
2023/07/10 06:48:19;;;;;;;9.13;4.03;;;29.20;87.60;;;;;;5095271;28;20268;-77
2023/07/10 06:50:50;;;;;;;10.80;4.45;;;30.20;85.50;;;;;;5095083;28;20242;-77
2023/07/10 06:53:18;;;;;;;8.02;4.13;;;30.80;76.60;;;;;;5094014;28;20637;-78
2023/07/10 06:55:55;;;;;;;7.50;4.22;;;30.50;75.00;;;;;;5094579;28;20281;-81
2023/07/10 06:58:24;;;;;;;10.50;4.40;;;30.60;73.60;;;;;;5093507;28;20310;-78
2023/07/10 07:00:53;;;;;;;13.05;4.15;;;30.40;72.90;;;;;;5092565;28;20231;-78
2023/07/10 07:03:21;;;;;;;7.85;4.25;;;30.30;70.30;;;;;;5092643;28;20569;-78
2023/07/10 07:05:50;;;;;;;6.65;3.80;;;30.80;70.00;;;;;;5091985;28;20548;-78
2023/07/10 07:08:18;;;;;;;8.82;3.90;;;31.20;63.60;;;;;;5092342;28;20711;-78
2023/07/10 07:10:47;;;;;;;6.95;4.38;;;31.80;64.10;;;;;;5092651;28;20233;-78
2023/07/10 07:13:15;;;;;;;8.48;4.45;;;31.40;61.30;;;;;;5092006;28;20217;-81
2023/07/10 07:15:49;;;;;;;5.47;3.90;;;30.80;61.60;;;;;;5108117;28;20206;-77
2023/07/10 07:18:17;;;;;;;6.85;3.95;;;30.20;62.30;;;;;;5114916;28;20209;-76
2023/07/10 07:20:45;;;;;;;8.25;4.10;;;30.20;66.50;;;;;;5114686;28;20571;-77
2023/07/10 07:23:13;;;;;;;7.43;3.67;;;29.60;66.10;;;;;;5100270;28;20621;-75
2023/07/10 07:25:42;;;;;;;7.40;4.38;;;28.80;70.50;;;;;;5094095;28;20239;-76
2023/07/10 07:28:12;;;;;;;7.18;4.07;;;28.50;68.20;;;;;;5094293;28;20631;-76
2023/07/10 07:30:47;;;;;;;10.23;4.10;;;28.70;74.80;;;;;;5094258;28;20272;-77
2023/07/10 07:33:17;;;;;;;7.50;4.00;;;28.80;73.30;;;;;;5093730;28;20209;-77
2023/07/10 07:35:45;;;;;;;11.65;4.47;;;29.00;71.00;;;;;;5094317;28;20211;-78
2023/07/10 07:38:14;;;;;;;11.40;4.38;;;29.20;70.30;;;;;;5097443;28;20533;-76
2023/07/10 07:40:42;;;;;;;8.10;4.18;;;29.40;68.40;;;;;;5114516;28;20305;-77
2023/07/10 07:43:10;;;;;;;7.60;4.30;;;29.10;70.20;;;;;;5113830;28;20770;-76
2023/07/10 07:45:38;;;;;;;8.23;4.63;;;29.00;71.90;;;;;;5112142;28;20283;-75
2023/07/10 07:48:06;;;;;;;8.98;4.15;;;28.50;71.40;;;;;;5093991;28;20207;-74
2023/07/10 07:50:36;;;;;;;9.27;4.50;;;28.00;74.20;;;;;;5093850;28;20276;-75
2023/07/10 07:53:04;;;;;;;10.18;4.20;;;27.70;74.30;;;;;;5093674;28;20211;-75
2023/07/10 07:55:32;;;;;;;7.33;4.23;;;27.70;77.10;;;;;;5111436;28;20226;-75
2023/07/10 07:58:00;;;;;;;9.40;4.00;;;27.50;79.60;;;;;;5114211;28;20210;-75
2023/07/10 08:00:29;;;;;;;7.20;4.50;;;27.30;78.50;;;;;;5114197;28;20210;-74
2023/07/10 08:02:57;;;;;;;10.63;4.23;;;27.40;74.80;;;;;;5109183;28;20202;-76
2023/07/10 08:05:25;;;;;;;7.30;4.00;;;27.30;74.30;;;;;;5093405;28;20664;-74
2023/07/10 08:07:58;;;;;;;7.00;4.17;;;27.30;71.50;;;;;;5093709;28;20195;-75
2023/07/10 08:10:26;;;;;;;6.80;3.70;;;27.40;69.70;;;;;;5096676;28;20609;-74
2023/07/10 08:12:55;;;;;;;7.63;4.03;;;27.70;70.30;;;;;;5113317;28;20257;-76
2023/07/10 08:15:23;;;;;;;10.03;4.43;;;27.80;69.50;;;;;;5113827;28;20263;-77
2023/07/10 08:17:51;;;;;;;6.40;4.30;;;27.50;67.80;;;;;;5113674;28;20764;-75
2023/07/10 08:20:19;;;;;;;8.10;4.30;;;27.30;69.40;;;;;;5110157;28;20633;-75
2023/07/10 08:22:48;;;;;;;7.53;4.13;;;26.90;71.30;;;;;;5092980;28;20215;-75
2023/07/10 08:25:17;;;;;;;7.53;4.43;;;26.70;74.70;;;;;;5093141;28;20206;-76
2023/07/10 08:27:46;;;;;;;5.60;4.00;;;26.40;74.80;;;;;;5093400;28;20260;-76
2023/07/10 08:30:14;;;;;;;7.27;4.07;;;26.10;77.80;;;;;;5093086;28;20214;-75
2023/07/10 08:32:43;;;;;;;8.47;4.47;;;25.90;79.30;;;;;;5092798;28;20223;-75
2023/07/10 08:35:11;;;;;;;8.50;4.60;;;25.80;79.20;;;;;;5093205;28;20245;-74
2023/07/10 08:37:39;;;;;;;10.47;4.10;;;25.60;80.10;;;;;;5092231;28;20510;-75
2023/07/10 08:40:15;;;;;;;10.13;4.33;;;25.50;81.80;;;;;;5093105;28;20207;-75
2023/07/10 08:42:45;;;;;;;7.43;4.50;;;25.50;82.30;;;;;;5092622;28;20552;-74
2023/07/10 08:45:19;;;;;;;7.10;4.33;;;25.40;82.80;;;;;;5093259;28;20256;-74
2023/07/10 08:47:53;;;;;;;8.87;4.60;;;25.40;85.60;;;;;;5093120;28;20206;-75
2023/07/10 08:50:28;;;;;;;7.53;4.93;;;25.20;84.80;;;;;;5093103;28;20626;-75
2023/07/10 08:53:01;;;;;;;10.13;4.50;;;25.10;90.90;;;;;;5092622;28;20314;-74
2023/07/10 08:55:37;;;;;;;8.37;4.20;;;24.90;90.00;;;;;;5092470;28;20317;-74
2023/07/10 08:58:18;;;;;;;9.23;4.60;;;24.80;91.00;;;;;;5093334;28;20206;-75
2023/07/10 09:00:49;;;;;;;11.33;4.87;;;24.60;90.40;;;;;;5094076;28;20787;-73
2023/07/10 09:03:30;;;;;;;6.80;4.70;;;24.50;90.50;;;;;;5092833;28;20264;-75
2023/07/10 09:06:00;;;;;;;7.97;5.00;;;24.40;92.10;;;;;;5095192;28;20214;-75
2023/07/10 09:08:29;;;;;;;13.20;5.07;;;24.20;92.70;;;;;;5093239;28;20206;-76
2023/07/10 09:11:02;;;;;;;10.17;5.00;;;24.00;93.80;;;;;;5093423;28;20654;-76
2023/07/10 09:13:39;;;;;;;8.57;4.43;;;24.00;94.60;;;;;;5092971;28;20231;-76
2023/07/10 09:16:14;;;;;;;10.20;4.70;;;23.80;94.90;;;;;;5074949;28;20245;-75
2023/07/10 09:18:52;;;;;;;12.13;4.50;;;23.80;95.80;;;;;;5095915;28;20210;-74
2023/07/10 09:21:23;;;;;;;8.67;4.70;;;23.80;96.40;;;;;;5094866;28;20575;-74
2023/07/10 09:23:51;;;;;;;8.90;4.53;;;24.00;97.90;;;;;;5105040;28;20206;-74
2023/07/10 09:26:22;;;;;;;9.33;5.00;;;24.20;98.80;;;;;;5112787;28;20283;-75
2023/07/10 09:29:02;;;;;;;11.97;4.73;;;24.40;95.80;;;;;;5113028;28;20297;-74
2023/07/10 09:31:40;;;;;;;6.13;4.70;;;24.50;96.70;;;;;;5111551;28;20221;-75
2023/07/10 09:34:10;;;;;;;10.43;4.70;;;24.60;95.70;;;;;;5095086;28;20210;-77
2023/07/10 09:36:39;;;;;;;15.10;5.57;;;24.60;96.20;;;;;;5112326;28;20213;-73
2023/07/10 09:39:07;;;;;;;18.93;7.57;;;24.40;99.90;;;;;;5107036;28;20207;-76
2023/07/10 09:41:38;;;;;;;13.47;5.40;;;23.80;99.90;;;;;;5092267;28;20206;-77
2023/07/10 09:44:17;;;;;;;13.73;6.10;;;23.40;99.90;;;;;;5092305;28;20195;-76
2023/07/10 09:46:45;;;;;;;11.47;5.43;;;23.00;99.90;;;;;;5092142;28;20209;-77
2023/07/10 09:49:21;;;;;;;11.63;5.70;;;22.90;99.90;;;;;;5095421;28;20252;-75
2023/07/10 09:51:57;;;;;;;11.37;6.10;;;22.80;99.90;;;;;;5096277;28;20230;-76
2023/07/10 09:54:26;;;;;;;12.57;6.17;;;22.80;99.90;;;;;;5095992;28;20230;-75
2023/07/10 09:56:55;;;;;;;11.63;6.00;;;23.00;99.90;;;;;;5096352;28;20217;-76
2023/07/10 09:59:27;;;;;;;17.23;6.13;;;23.10;99.90;;;;;;5096244;28;20210;-75
2023/07/10 10:01:56;;;;;;;12.70;6.07;;;22.90;99.90;;;;;;5095999;28;20621;-74
2023/07/10 10:04:27;;;;;;;15.93;6.33;;;23.10;99.90;;;;;;5096232;28;20302;-75
2023/07/10 10:06:57;;;;;;;13.83;6.07;;;23.10;99.90;;;;;;5108605;28;20542;-74
2023/07/10 10:09:27;;;;;;;12.37;6.10;;;23.20;99.90;;;;;;5116367;28;20185;-75
2023/07/10 10:12:03;;;;;;;11.00;5.40;;;23.30;99.90;;;;;;5116322;28;20267;-75
2023/07/10 10:14:43;;;;;;;11.53;5.50;;;23.30;99.90;;;;;;5112071;28;20290;-74
2023/07/10 10:17:16;;;;;;;10.63;5.53;;;23.40;99.90;;;;;;5095897;28;20293;-75
2023/07/10 10:19:50;;;;;;;10.13;5.30;;;23.40;99.90;;;;;;5095748;28;20710;-73
2023/07/10 10:22:18;;;;;;;10.20;4.80;;;23.40;99.90;;;;;;5095720;28;20324;-75
2023/07/10 10:24:47;;;;;;;8.23;4.50;;;23.40;99.90;;;;;;5108751;28;20293;-76
2023/07/10 10:27:28;;;;;;;8.60;4.80;;;23.50;99.90;;;;;;5115908;28;20206;-74
2023/07/10 10:30:13;;;;;;;8.13;4.80;;;23.80;99.90;;;;;;5099125;28;20210;-74
2023/07/10 10:32:49;;;;;;;8.17;4.10;;;24.10;99.90;;;;;;5097503;28;20280;-74
2023/07/10 10:35:23;;;;;;;7.63;4.13;;;24.60;99.90;;;;;;5095368;28;20202;-77
2023/07/10 10:38:03;;;;;;;12.10;4.13;;;25.20;99.90;;;;;;5095089;28;20214;-75
2023/07/10 10:40:40;;;;;;;10.33;4.20;;;25.50;99.90;;;;;;5094904;28;20442;-75
2023/07/10 10:43:33;;;;;;;12.17;4.33;;;26.00;99.90;;;;;;5095055;28;20209;-75
2023/07/10 10:46:06;;;;;;;9.50;4.23;;;26.70;99.90;;;;;;5095572;28;20207;-76
2023/07/10 10:48:42;;;;;;;8.50;4.05;;;27.50;99.90;;;;;;5095114;28;20696;-74
2023/07/10 10:51:24;;;;;;;6.35;3.83;;;28.40;99.90;;;;;;5077624;28;20604;-77
2023/07/10 10:54:00;;;;;;;4.53;3.58;;;29.40;99.10;;;;;;5078100;28;20276;-77
2023/07/10 10:56:34;;;;;;;7.55;3.83;;;30.40;99.90;;;;;;5095303;28;20302;-77
2023/07/10 10:59:25;;;;;;;9.35;4.05;;;31.10;90.10;;;;;;5105814;28;20662;-79
2023/07/10 11:02:01;;;;;;;8.18;3.83;;;31.60;91.80;;;;;;5115367;28;20550;-80
2023/07/10 11:04:37;;;;;;;7.30;3.75;;;32.40;90.30;;;;;;5115705;28;20202;-78
2023/07/10 11:07:07;;;;;;;7.40;3.75;;;32.60;85.50;;;;;;5115451;28;20210;-79
2023/07/10 11:09:40;;;;;;;13.90;3.78;;;32.80;87.00;;;;;;5115188;28;20691;-81
2023/07/10 11:12:15;;;;;;;9.00;3.90;;;33.40;78.40;;;;;;5115040;28;20481;-78
2023/07/10 11:14:44;;;;;;;6.82;3.40;;;33.30;71.10;;;;;;5115452;28;20202;-80
2023/07/10 11:17:14;;;;;;;11.57;3.55;;;33.30;75.30;;;;;;5108600;28;20653;-77
2023/07/10 11:19:43;;;;;;;7.38;3.53;;;33.10;75.20;;;;;;5094967;28;20215;-79
2023/07/10 11:22:19;;;;;;;8.93;3.60;;;32.90;75.00;;;;;;5094880;28;20292;-79
2023/07/10 11:24:50;;;;;;;7.00;3.47;;;32.70;68.60;;;;;;5076899;28;20248;-79
2023/07/10 11:27:22;;;;;;;7.90;3.38;;;32.50;69.00;;;;;;5094632;28;20240;-78
2023/07/10 11:29:56;;;;;;;6.50;3.75;;;32.20;68.00;;;;;;5095131;28;20207;-77
2023/07/10 11:32:28;;;;;;;6.00;3.28;;;32.30;67.70;;;;;;5094427;28;20221;-78
2023/07/10 11:35:15;;;;;;;6.97;3.30;;;32.20;64.10;;;;;;5095432;28;20207;-78
2023/07/10 11:38:18;;;;;;;6.88;3.30;;;32.40;61.60;;;;;;5095446;28;20595;-76
2023/07/10 11:40:50;;;;;;;7.68;3.30;;;32.30;62.70;;;;;;5095979;28;20230;-75
2023/07/10 11:43:58;;;;;;;6.05;3.20;;;32.30;66.90;;;;;;5094869;28;20230;-77
2023/07/10 11:46:32;;;;;;;5.63;2.80;;;32.40;61.20;;;;;;5095953;28;20207;-78
2023/07/10 11:49:16;;;;;;;5.90;2.90;;;32.40;62.40;;;;;;5095369;28;20210;-75
2023/07/10 11:52:05;;;;;;;4.32;2.88;;;32.30;58.40;;;;;;5095254;28;20290;-76
2023/07/10 11:54:39;;;;;;;4.20;2.75;;;31.90;54.80;;;;;;5094643;28;20258;-75
2023/07/10 11:57:18;;;;;;;5.03;2.85;;;31.90;57.90;;;;;;5095125;28;20211;-76
2023/07/10 11:59:49;;;;;;;7.38;3.28;;;31.80;55.70;;;;;;5095747;28;20215;-78
2023/07/10 12:02:39;;;;;;;6.43;3.45;;;31.80;58.80;;;;;;5094752;28;20218;-78
2023/07/10 12:05:16;;;;;;;5.57;3.20;;;31.50;56.50;;;;;;5081652;28;20203;-77
2023/07/10 12:07:52;;;;;;;5.75;3.40;;;31.60;61.40;;;;;;5095138;28;20645;-75
2023/07/10 12:10:23;;;;;;;5.53;3.30;;;31.50;60.60;;;;;;5094997;28;20256;-75
2023/07/10 12:12:52;;;;;;;6.90;3.20;;;31.80;62.00;;;;;;5093247;28;20672;-76
2023/07/10 12:15:21;;;;;;;5.55;3.33;;;31.80;59.50;;;;;;5094718;28;20202;-77
2023/07/10 12:17:51;;;;;;;6.90;3.40;;;31.80;59.00;;;;;;5094926;28;20269;-76
2023/07/10 12:20:26;;;;;;;6.00;3.60;;;31.80;58.40;;;;;;5095001;28;20285;-76
2023/07/10 12:23:00;;;;;;;5.85;3.40;;;32.00;56.70;;;;;;5094310;28;20241;-76
2023/07/10 12:25:29;;;;;;;5.05;3.65;;;31.90;57.60;;;;;;5094340;28;20636;-75
2023/07/10 12:28:01;;;;;;;9.50;3.92;;;32.00;60.70;;;;;;5094339;28;20355;-77
2023/07/10 12:30:51;;;;;;;4.95;3.28;;;32.10;61.30;;;;;;5079171;28;20202;-76
2023/07/10 12:33:38;;;;;;;7.07;4.43;;;32.40;65.70;;;;;;5094684;28;20670;-77
2023/07/10 12:36:17;;;;;;;7.20;3.85;;;32.20;59.00;;;;;;5094217;28;20206;-77
2023/07/10 12:38:45;;;;;;;6.22;3.90;;;32.20;62.50;;;;;;5093954;28;20302;-75
2023/07/10 12:41:17;;;;;;;6.82;3.80;;;31.70;59.40;;;;;;5094505;28;20256;-75
2023/07/10 12:43:48;;;;;;;7.00;4.00;;;31.80;59.60;;;;;;5094365;28;20257;-75
2023/07/10 12:46:22;;;;;;;7.15;3.95;;;31.80;58.90;;;;;;5094041;28;20669;-75
2023/07/10 12:48:54;;;;;;;5.25;3.70;;;31.50;58.40;;;;;;5094274;28;20209;-75
2023/07/10 12:51:27;;;;;;;9.32;4.18;;;31.90;60.40;;;;;;5094039;28;20248;-74
2023/07/10 12:53:56;;;;;;;6.72;3.42;;;32.20;61.40;;;;;;5093860;28;20231;-77
2023/07/10 12:56:29;;;;;;;6.68;4.03;;;32.60;59.10;;;;;;5093928;28;20545;-76
2023/07/10 12:58:58;;;;;;;6.80;3.60;;;32.60;57.90;;;;;;5096156;28;20259;-76
2023/07/10 13:01:32;;;;;;;6.00;3.22;;;32.80;58.30;;;;;;5112978;28;20282;-76
2023/07/10 13:04:15;;;;;;;6.38;3.33;;;32.80;52.00;;;;;;5112775;28;20289;-75
2023/07/10 13:06:44;;;;;;;6.75;3.17;;;32.80;51.70;;;;;;5108260;28;20686;-77